Time;durP1;ratioP1;P1;durP2;ratioP2;P2;SDS_P1;SDS_P2;PMS_P1;PMS_P2;Temp;Humidity;BMP_temperature;BMP_pressure;BME280_temperature;BME280_humidity;BME280_pressure;Samples;Min_cycle;Max_cycle;Signal;HPM_P1;HPM_P2
2022/09/11 00:00:36;;;;;;;2.72;0.98;;;12.00;99.90;;;;;;5035578;28;20037;-73
2022/09/11 00:03:02;;;;;;;5.10;1.23;;;12.00;99.90;;;;;;5035191;28;20029;-73
2022/09/11 00:05:29;;;;;;;2.83;1.20;;;12.00;99.90;;;;;;5034058;28;20393;-73
2022/09/11 00:07:56;;;;;;;4.68;1.25;;;11.90;99.90;;;;;;5035453;28;20140;-73
2022/09/11 00:10:23;;;;;;;4.30;1.00;;;12.00;99.90;;;;;;5035018;28;20342;-73
2022/09/11 00:12:49;;;;;;;2.28;0.88;;;12.00;99.90;;;;;;5034850;28;20029;-73
2022/09/11 00:15:16;;;;;;;2.08;0.88;;;12.00;99.90;;;;;;5034986;28;20025;-73
2022/09/11 00:17:41;;;;;;;1.90;0.90;;;12.00;99.90;;;;;;5035563;28;20021;-73
2022/09/11 00:20:08;;;;;;;2.67;0.80;;;12.00;99.90;;;;;;5034891;28;20338;-72
2022/09/11 00:22:33;;;;;;;1.63;0.77;;;11.90;99.90;;;;;;5034902;28;20029;-72
2022/09/11 00:24:59;;;;;;;1.60;0.75;;;11.80;99.90;;;;;;5034849;28;20032;-72
2022/09/11 00:27:25;;;;;;;1.73;1.05;;;11.80;99.90;;;;;;5034805;28;20083;-73
2022/09/11 00:29:51;;;;;;;1.52;0.90;;;11.80;99.90;;;;;;5034703;28;20382;-72
2022/09/11 00:32:16;;;;;;;5.47;1.13;;;11.70;99.90;;;;;;5034908;28;20026;-72
2022/09/11 00:34:43;;;;;;;3.45;0.90;;;11.80;99.90;;;;;;5034937;28;20032;-72
2022/09/11 00:37:09;;;;;;;1.25;0.80;;;11.70;99.90;;;;;;5035139;28;20466;-72
2022/09/11 00:39:34;;;;;;;3.38;1.10;;;11.60;99.90;;;;;;5034791;28;20041;-73
2022/09/11 00:42:01;;;;;;;3.15;1.08;;;11.60;99.90;;;;;;5034487;28;20143;-73
2022/09/11 00:44:27;;;;;;;4.03;0.98;;;11.60;99.90;;;;;;5034788;28;20034;-73
2022/09/11 00:46:59;;;;;;;4.78;1.20;;;11.70;99.90;;;;;;5033185;28;20117;-74
2022/09/11 00:49:31;;;;;;;3.17;1.20;;;11.70;99.90;;;;;;5034595;28;20025;-74
2022/09/11 00:52:19;;;;;;;2.53;1.20;;;11.70;99.90;;;;;;5034307;28;20021;-73
2022/09/11 00:54:51;;;;;;;2.58;0.85;;;11.70;99.90;;;;;;5034624;28;20485;-72
2022/09/11 00:57:17;;;;;;;;;;;11.80;99.90;;;;;;5033431;28;20030;-72
2022/09/11 00:59:46;;;;;;;1.55;0.98;;;11.80;99.90;;;;;;5034218;28;19905;-73
2022/09/11 01:02:16;;;;;;;3.95;1.13;;;11.80;99.90;;;;;;5033980;28;20504;-73
2022/09/11 01:04:41;;;;;;;2.78;1.00;;;11.90;99.90;;;;;;5034112;28;20034;-72
2022/09/11 01:07:10;;;;;;;1.95;0.85;;;11.90;99.90;;;;;;5034557;28;20030;-72
2022/09/11 01:09:35;;;;;;;3.60;1.00;;;11.90;99.90;;;;;;5034231;28;20061;-72
2022/09/11 01:12:27;;;;;;;2.20;1.00;;;11.90;99.90;;;;;;5033935;28;20144;-72
2022/09/11 01:14:59;;;;;;;3.25;0.90;;;11.90;99.90;;;;;;5033950;28;20018;-72
2022/09/11 01:17:51;;;;;;;2.22;0.90;;;11.90;99.90;;;;;;5034171;28;20019;-73
2022/09/11 01:20:35;;;;;;;1.45;0.93;;;11.90;99.90;;;;;;5030565;28;20449;-72
2022/09/11 01:23:16;;;;;;;2.95;1.33;;;11.90;99.90;;;;;;5033793;28;20026;-72
2022/09/11 01:26:27;;;;;;;2.70;1.20;;;11.90;99.90;;;;;;5034328;28;20025;-72
2022/09/11 01:29:12;;;;;;;9.38;4.03;;;11.90;99.90;;;;;;5034236;28;20060;-72
2022/09/11 01:31:52;;;;;;;3.58;1.70;;;11.80;99.90;;;;;;5033899;28;20470;-72
2022/09/11 01:34:25;;;;;;;2.47;1.27;;;11.80;99.90;;;;;;5033925;28;20017;-72
2022/09/11 01:36:56;;;;;;;2.75;1.60;;;11.70;99.90;;;;;;5033850;28;20030;-72
2022/09/11 01:39:29;;;;;;;4.03;1.35;;;11.70;99.90;;;;;;5033791;28;20104;-73
2022/09/11 01:42:17;;;;;;;3.13;1.38;;;11.60;99.90;;;;;;5033534;28;20367;-72
2022/09/11 01:44:55;;;;;;;2.33;1.20;;;11.60;99.90;;;;;;5033722;28;20048;-72
2022/09/11 01:47:21;;;;;;;1.58;1.10;;;11.60;99.90;;;;;;5033989;28;20036;-73
2022/09/11 01:50:01;;;;;;;2.13;1.25;;;11.70;99.90;;;;;;5033843;28;20033;-73
2022/09/11 01:52:32;;;;;;;2.40;0.90;;;11.60;99.90;;;;;;5034385;28;20155;-73
2022/09/11 01:55:09;;;;;;;2.40;1.00;;;11.70;99.90;;;;;;5033352;28;20104;-73
2022/09/11 01:57:38;;;;;;;1.90;1.30;;;11.70;99.90;;;;;;5033308;28;20045;-73
2022/09/11 02:00:10;;;;;;;2.13;1.02;;;11.70;99.90;;;;;;5033417;28;20080;-73
2022/09/11 02:02:38;;;;;;;;;;;11.70;99.90;;;;;;5032248;28;20078;-73
2022/09/11 02:05:24;;;;;;;2.47;1.00;;;11.70;99.90;;;;;;5033442;28;19905;-73
2022/09/11 02:07:58;;;;;;;3.15;1.92;;;11.80;99.90;;;;;;5033498;28;20073;-73
2022/09/11 02:10:39;;;;;;;6.75;3.20;;;11.80;99.90;;;;;;5033074;28;20029;-73
2022/09/11 02:13:12;;;;;;;3.80;2.20;;;11.80;99.90;;;;;;5033690;28;20100;-73
2022/09/11 02:15:48;;;;;;;4.10;1.63;;;11.80;99.90;;;;;;5033298;28;20032;-73
2022/09/11 02:18:14;;;;;;;3.33;1.48;;;11.80;99.90;;;;;;5033353;28;20097;-73
2022/09/11 02:20:44;;;;;;;2.63;1.08;;;11.80;99.90;;;;;;5031684;28;20444;-73
2022/09/11 02:23:10;;;;;;;1.90;1.00;;;11.80;99.90;;;;;;5033249;28;20109;-73
2022/09/11 02:25:35;;;;;;;2.58;1.10;;;11.90;99.90;;;;;;5032919;28;20103;-73
2022/09/11 02:28:01;;;;;;;1.95;0.98;;;11.90;99.90;;;;;;5033220;28;20065;-73
2022/09/11 02:30:27;;;;;;;1.70;0.88;;;11.90;99.90;;;;;;5032811;28;20041;-73
2022/09/11 02:32:54;;;;;;;1.13;0.75;;;11.90;99.90;;;;;;5033176;28;20434;-73
2022/09/11 02:35:24;;;;;;;2.30;0.98;;;12.00;99.90;;;;;;5033946;28;20494;-73
2022/09/11 02:38:00;;;;;;;1.30;0.90;;;12.00;99.90;;;;;;5036866;28;20056;-73
2022/09/11 02:40:54;;;;;;;3.53;0.80;;;12.00;99.90;;;;;;5037057;28;20034;-73
2022/09/11 02:43:37;;;;;;;2.50;1.10;;;12.00;99.90;;;;;;5037035;28;20025;-73
2022/09/11 02:46:09;;;;;;;2.25;1.00;;;12.10;99.90;;;;;;5036997;28;20021;-73
2022/09/11 02:48:51;;;;;;;1.77;1.08;;;12.00;99.90;;;;;;5036579;28;20037;-73
2022/09/11 02:51:28;;;;;;;2.10;0.90;;;12.00;99.90;;;;;;5036579;28;20470;-73
2022/09/11 02:54:18;;;;;;;3.72;0.80;;;12.00;99.90;;;;;;5036612;28;20064;-74
2022/09/11 02:57:08;;;;;;;1.42;0.90;;;12.00;99.90;;;;;;5036518;28;20018;-73
2022/09/11 02:59:45;;;;;;;1.63;0.82;;;12.00;99.90;;;;;;5036746;28;20470;-73
2022/09/11 03:02:13;;;;;;;2.80;0.70;;;12.00;99.90;;;;;;5036236;28;20477;-73
2022/09/11 03:04:40;;;;;;;3.08;0.93;;;12.00;99.90;;;;;;5036335;28;20025;-73
2022/09/11 03:07:06;;;;;;;1.83;0.90;;;12.00;99.90;;;;;;5036660;28;20034;-73
2022/09/11 03:09:33;;;;;;;1.67;0.90;;;12.00;99.90;;;;;;5036242;28;20029;-73
2022/09/11 03:12:00;;;;;;;2.42;1.13;;;12.00;99.90;;;;;;5036230;28;20052;-73
2022/09/11 03:14:25;;;;;;;1.77;0.80;;;12.00;99.90;;;;;;5036522;28;20105;-73
2022/09/11 03:16:51;;;;;;;1.65;0.77;;;12.00;99.90;;;;;;5036132;28;20053;-73
2022/09/11 03:19:17;;;;;;;1.08;0.65;;;12.00;99.90;;;;;;5036165;28;20022;-72
2022/09/11 03:21:42;;;;;;;1.00;0.63;;;12.00;99.90;;;;;;5034750;28;20064;-73
2022/09/11 03:24:08;;;;;;;1.95;0.80;;;12.00;99.90;;;;;;5036309;28;20084;-73
2022/09/11 03:26:35;;;;;;;1.23;0.68;;;12.00;99.90;;;;;;5035968;28;20092;-73
2022/09/11 03:29:02;;;;;;;1.25;0.70;;;12.00;99.90;;;;;;5035927;28;20087;-73
2022/09/11 03:31:28;;;;;;;1.80;0.90;;;12.00;99.90;;;;;;5035952;28;20389;-73
2022/09/11 03:33:54;;;;;;;1.05;0.75;;;12.00;99.90;;;;;;5035859;28;20028;-73
2022/09/11 03:36:21;;;;;;;1.75;0.90;;;12.10;99.90;;;;;;5035901;28;20013;-73
2022/09/11 03:38:47;;;;;;;1.73;0.90;;;12.00;99.90;;;;;;5035755;28;20079;-73
2022/09/11 03:41:13;;;;;;;1.10;0.70;;;12.10;99.90;;;;;;5035659;28;20026;-73
2022/09/11 03:43:39;;;;;;;0.98;0.63;;;12.00;99.90;;;;;;5035710;28;20036;-73
2022/09/11 03:46:05;;;;;;;2.90;1.13;;;12.00;99.90;;;;;;5033777;28;20033;-73
2022/09/11 03:48:32;;;;;;;2.08;0.98;;;12.10;99.90;;;;;;5035469;28;20040;-73
2022/09/11 03:50:57;;;;;;;2.45;1.00;;;12.10;99.90;;;;;;5035732;28;20437;-73
2022/09/11 03:53:24;;;;;;;3.20;1.00;;;12.10;99.90;;;;;;5035774;28;20100;-73
2022/09/11 03:55:50;;;;;;;2.45;1.10;;;12.10;99.90;;;;;;5035633;28;20580;-73
2022/09/11 03:58:18;;;;;;;2.47;1.20;;;12.10;99.90;;;;;;5035925;28;20044;-73
2022/09/11 04:00:44;;;;;;;2.63;1.10;;;12.10;99.90;;;;;;5035164;28;20056;-73
2022/09/11 04:03:14;;;;;;;1.83;0.88;;;12.10;99.90;;;;;;5035366;28;20032;-73
2022/09/11 04:05:42;;;;;;;1.77;0.90;;;12.10;99.90;;;;;;5035321;28;20432;-73
2022/09/11 04:08:12;;;;;;;1.83;1.05;;;12.10;99.90;;;;;;5035161;28;20022;-73
2022/09/11 04:10:38;;;;;;;1.98;0.95;;;12.10;99.90;;;;;;5035430;28;20045;-73
2022/09/11 04:13:04;;;;;;;1.95;0.90;;;12.10;99.90;;;;;;5035114;28;20044;-73
2022/09/11 04:15:31;;;;;;;2.33;0.73;;;12.10;99.90;;;;;;5035046;28;20437;-73
2022/09/11 04:17:57;;;;;;;1.90;0.93;;;12.00;99.90;;;;;;5035329;28;20026;-73
2022/09/11 04:20:23;;;;;;;3.05;0.85;;;12.00;99.90;;;;;;5035190;28;20025;-73
2022/09/11 04:22:49;;;;;;;1.52;1.00;;;12.00;99.90;;;;;;5034929;28;20107;-73
2022/09/11 04:25:15;;;;;;;3.55;1.38;;;12.00;99.90;;;;;;5034849;28;20032;-73
2022/09/11 04:27:41;;;;;;;2.63;1.08;;;12.00;99.90;;;;;;5034170;28;20034;-73
2022/09/11 04:30:07;;;;;;;1.80;1.10;;;12.00;99.90;;;;;;5034964;28;20479;-73
2022/09/11 04:32:33;;;;;;;1.50;0.90;;;12.00;99.90;;;;;;5034988;28;20022;-74
2022/09/11 04:35:00;;;;;;;1.90;0.90;;;12.00;99.90;;;;;;5033545;28;20128;-74
2022/09/11 04:37:27;;;;;;;2.03;1.00;;;12.10;99.90;;;;;;5034919;28;20026;-74
2022/09/11 04:39:53;;;;;;;1.58;0.90;;;12.10;99.90;;;;;;5034583;28;20171;-74
2022/09/11 04:42:19;;;;;;;1.90;1.10;;;12.10;99.90;;;;;;5034476;28;20494;-73
2022/09/11 04:44:45;;;;;;;2.75;1.15;;;12.10;99.90;;;;;;5034787;28;20466;-73
2022/09/11 04:47:11;;;;;;;5.88;1.50;;;12.10;99.90;;;;;;5034733;28;20056;-73
2022/09/11 04:49:37;;;;;;;2.50;1.40;;;12.10;99.90;;;;;;5034377;28;20036;-72
2022/09/11 04:52:04;;;;;;;4.43;1.30;;;12.10;99.90;;;;;;5034338;28;20030;-72
2022/09/11 04:54:35;;;;;;;1.70;1.10;;;12.10;99.90;;;;;;5034324;28;20105;-72
2022/09/11 04:57:02;;;;;;;2.50;1.23;;;12.10;99.90;;;;;;5034592;28;20449;-72
2022/09/11 04:59:28;;;;;;;3.25;1.00;;;12.10;99.90;;;;;;5033997;28;20038;-72
2022/09/11 05:01:54;;;;;;;1.70;1.13;;;12.10;99.90;;;;;;5034134;28;20048;-72
2022/09/11 05:04:20;;;;;;;3.08;1.38;;;12.10;99.90;;;;;;5034408;28;20040;-72
2022/09/11 05:06:47;;;;;;;2.33;1.42;;;12.10;99.90;;;;;;5033369;28;20033;-72
2022/09/11 05:09:14;;;;;;;2.28;1.30;;;12.10;99.90;;;;;;5043458;28;20025;-72
2022/09/11 05:11:41;;;;;;;1.83;1.00;;;12.10;99.90;;;;;;5035091;28;20025;-72
2022/09/11 05:14:07;;;;;;;2.33;1.30;;;12.10;99.90;;;;;;5032917;28;20025;-72
2022/09/11 05:16:34;;;;;;;2.83;1.38;;;12.10;99.90;;;;;;5033935;28;20028;-72
2022/09/11 05:19:02;;;;;;;2.08;1.30;;;12.10;99.90;;;;;;5032861;28;20424;-72
2022/09/11 05:21:29;;;;;;;3.00;1.10;;;12.10;99.90;;;;;;5033907;28;20060;-72
2022/09/11 05:23:56;;;;;;;3.15;1.50;;;12.10;99.90;;;;;;5032634;28;20030;-71
2022/09/11 05:26:31;;;;;;;2.40;1.27;;;12.10;99.90;;;;;;5034306;28;20025;-71
2022/09/11 05:29:06;;;;;;;1.90;1.15;;;12.10;99.90;;;;;;5033958;28;20021;-72
2022/09/11 05:31:32;;;;;;;2.28;1.10;;;12.10;99.90;;;;;;5033866;28;20071;-72
2022/09/11 05:33:59;;;;;;;1.88;1.10;;;12.10;99.90;;;;;;5033630;28;20113;-72
2022/09/11 05:36:26;;;;;;;2.65;1.02;;;12.10;99.90;;;;;;5032873;28;20021;-72
2022/09/11 05:38:52;;;;;;;1.45;0.95;;;12.20;99.90;;;;;;5033310;28;20060;-72
2022/09/11 05:41:19;;;;;;;1.63;1.00;;;12.10;99.90;;;;;;5033642;28;20386;-72
2022/09/11 05:43:45;;;;;;;2.60;0.80;;;12.10;99.90;;;;;;5032239;28;20029;-73
2022/09/11 05:46:13;;;;;;;2.10;1.40;;;12.20;99.90;;;;;;5034021;28;20040;-72
2022/09/11 05:48:40;;;;;;;2.10;1.30;;;12.20;99.90;;;;;;5033332;28;20021;-72
2022/09/11 05:51:09;;;;;;;1.73;1.00;;;12.20;99.90;;;;;;5030070;28;20053;-72
2022/09/11 05:53:36;;;;;;;4.03;1.33;;;12.20;99.90;;;;;;5013396;28;20018;-72
2022/09/11 05:56:10;;;;;;;2.20;1.13;;;12.20;99.90;;;;;;5013567;28;20022;-72
2022/09/11 05:58:36;;;;;;;2.88;1.10;;;12.20;99.90;;;;;;5013895;28;20475;-72
2022/09/11 06:01:10;;;;;;;2.03;1.10;;;12.20;99.90;;;;;;5013271;28;20073;-73
2022/09/11 06:03:37;;;;;;;2.20;1.27;;;12.20;99.90;;;;;;5013552;28;20026;-73
2022/09/11 06:06:06;;;;;;;1.88;1.20;;;12.20;99.90;;;;;;5024145;28;20389;-72
2022/09/11 06:08:33;;;;;;;3.83;1.75;;;12.20;99.90;;;;;;5033040;28;20033;-72
2022/09/11 06:11:00;;;;;;;4.50;3.00;;;12.20;99.90;;;;;;5032800;28;20028;-73
2022/09/11 06:13:31;;;;;;;4.57;2.65;;;12.20;99.90;;;;;;5033044;28;20052;-72
2022/09/11 06:15:57;;;;;;;2.83;2.05;;;12.20;99.90;;;;;;5033153;28;20017;-72
2022/09/11 06:18:22;;;;;;;3.08;1.80;;;12.20;99.90;;;;;;5032403;28;20462;-72
2022/09/11 06:21:02;;;;;;;2.67;1.85;;;12.20;99.90;;;;;;5033313;28;20083;-72
2022/09/11 06:23:28;;;;;;;2.97;1.70;;;12.20;99.90;;;;;;5033295;28;20405;-72
2022/09/11 06:26:02;;;;;;;2.42;1.48;;;12.20;99.90;;;;;;5033292;28;20022;-72
2022/09/11 06:28:28;;;;;;;3.17;1.40;;;12.20;99.90;;;;;;5033224;28;20025;-72
2022/09/11 06:30:53;;;;;;;2.83;1.23;;;12.20;99.90;;;;;;5033429;28;20030;-72
2022/09/11 06:33:19;;;;;;;2.83;1.23;;;12.30;99.90;;;;;;5032696;28;20054;-72
2022/09/11 06:35:59;;;;;;;2.33;1.23;;;12.20;99.90;;;;;;5032170;28;20164;-72
2022/09/11 06:38:25;;;;;;;2.85;1.50;;;12.20;99.90;;;;;;5032973;28;20033;-72
2022/09/11 06:40:52;;;;;;;2.90;1.58;;;12.20;99.90;;;;;;5032751;28;20560;-72
2022/09/11 06:43:18;;;;;;;1.80;1.23;;;12.20;99.90;;;;;;5030512;28;20057;-72
2022/09/11 06:45:45;;;;;;;2.20;1.20;;;12.20;99.90;;;;;;5031473;28;20390;-72
2022/09/11 06:48:11;;;;;;;2.22;1.40;;;12.20;99.90;;;;;;5031834;28;20053;-72
2022/09/11 06:50:40;;;;;;;2.80;1.30;;;12.20;99.90;;;;;;5032951;28;20087;-72
2022/09/11 06:53:07;;;;;;;3.15;1.50;;;12.20;99.90;;;;;;5032054;28;20140;-72
2022/09/11 06:55:33;;;;;;;2.97;1.20;;;12.20;99.90;;;;;;5032543;28;20028;-72
2022/09/11 06:57:59;;;;;;;2.30;1.15;;;12.20;99.90;;;;;;5032768;28;20544;-72
2022/09/11 07:00:25;;;;;;;2.20;1.02;;;12.30;99.90;;;;;;5032925;28;20044;-72
2022/09/11 07:02:51;;;;;;;1.60;0.90;;;12.20;99.90;;;;;;5031840;28;20045;-72
2022/09/11 07:05:18;;;;;;;2.22;1.15;;;12.30;99.90;;;;;;5032727;28;20115;-72
2022/09/11 07:07:44;;;;;;;1.70;1.13;;;12.30;99.90;;;;;;5032686;28;20059;-72
2022/09/11 07:10:10;;;;;;;4.28;1.40;;;12.30;99.90;;;;;;5032487;28;20363;-71
2022/09/11 07:12:37;;;;;;;2.40;1.20;;;12.30;99.90;;;;;;5032992;28;20029;-72
2022/09/11 07:15:05;;;;;;;3.58;1.50;;;12.30;99.90;;;;;;5032844;28;20470;-72
2022/09/11 07:17:31;;;;;;;4.28;1.73;;;12.30;99.90;;;;;;5032524;28;20029;-72
2022/09/11 07:19:57;;;;;;;2.60;1.30;;;12.30;99.90;;;;;;5032496;28;20025;-72
2022/09/11 07:22:23;;;;;;;3.22;1.23;;;12.30;99.90;;;;;;5034712;28;20025;-72
2022/09/11 07:24:48;;;;;;;2.53;1.10;;;12.30;99.90;;;;;;5034876;28;20033;-72
2022/09/11 07:27:14;;;;;;;4.70;1.20;;;12.40;99.90;;;;;;5036505;28;20026;-71
2022/09/11 07:29:40;;;;;;;2.10;0.73;;;12.40;99.90;;;;;;5036416;28;20033;-70
2022/09/11 07:32:05;;;;;;;3.00;1.02;;;12.40;99.90;;;;;;5036128;28;20033;-71
2022/09/11 07:34:31;;;;;;;3.83;1.10;;;12.40;99.90;;;;;;5036106;28;20030;-69
2022/09/11 07:36:56;;;;;;;1.77;0.88;;;12.40;99.90;;;;;;5036040;28;20041;-70
2022/09/11 07:39:22;;;;;;;4.07;1.10;;;12.50;99.90;;;;;;5035796;28;20037;-69
2022/09/11 07:41:48;;;;;;;1.50;0.73;;;12.50;99.90;;;;;;5034456;28;20025;-70
2022/09/11 07:44:15;;;;;;;1.40;0.93;;;12.40;99.90;;;;;;5036011;28;20088;-71
2022/09/11 07:46:40;;;;;;;2.03;0.95;;;12.50;99.90;;;;;;5035624;28;20029;-70
2022/09/11 07:49:08;;;;;;;1.95;0.88;;;12.50;99.90;;;;;;5035543;28;20604;-71
2022/09/11 07:51:36;;;;;;;1.25;0.65;;;12.50;99.90;;;;;;5034307;28;20390;-70
2022/09/11 07:54:02;;;;;;;1.58;0.80;;;12.40;99.90;;;;;;5035748;28;20581;-70
2022/09/11 07:56:29;;;;;;;2.35;0.75;;;12.40;99.90;;;;;;5034278;28;20124;-70
2022/09/11 07:58:56;;;;;;;1.88;0.80;;;12.40;99.90;;;;;;5035771;28;20017;-70
2022/09/11 08:01:28;;;;;;;1.52;0.93;;;12.40;99.90;;;;;;5035379;28;20060;-69
2022/09/11 08:03:59;;;;;;;3.47;0.90;;;12.40;99.90;;;;;;5034114;28;20079;-70
2022/09/11 08:06:27;;;;;;;1.33;0.70;;;12.40;99.90;;;;;;5035410;28;20474;-70
2022/09/11 08:08:55;;;;;;;1.25;0.50;;;12.40;99.90;;;;;;5035471;28;20163;-71
2022/09/11 08:11:22;;;;;;;1.23;0.68;;;12.40;99.90;;;;;;5035132;28;20436;-70
2022/09/11 08:13:50;;;;;;;2.20;0.70;;;12.40;99.90;;;;;;5035356;28;20029;-69
2022/09/11 08:16:17;;;;;;;1.55;0.70;;;12.50;99.90;;;;;;5033786;28;20034;-70
2022/09/11 08:18:43;;;;;;;2.00;1.00;;;12.50;99.90;;;;;;5035073;28;20108;-70
2022/09/11 08:21:10;;;;;;;1.60;0.90;;;12.50;99.90;;;;;;5034965;28;20032;-71
2022/09/11 08:23:39;;;;;;;1.90;0.75;;;12.50;99.90;;;;;;5035006;28;20060;-70
2022/09/11 08:26:23;;;;;;;1.50;0.80;;;12.50;99.90;;;;;;5035003;28;20032;-70
2022/09/11 08:28:51;;;;;;;1.42;0.77;;;12.50;99.90;;;;;;5035214;28;20036;-71
2022/09/11 08:31:19;;;;;;;2.13;0.80;;;12.50;99.90;;;;;;5033874;28;20448;-70
2022/09/11 08:33:45;;;;;;;1.70;0.85;;;12.50;99.90;;;;;;5033697;28;20378;-71
2022/09/11 08:36:14;;;;;;;2.33;1.10;;;12.50;99.90;;;;;;5035054;28;20108;-71
2022/09/11 08:38:41;;;;;;;1.25;0.82;;;12.50;99.90;;;;;;5034624;28;20025;-71
2022/09/11 08:41:20;;;;;;;2.63;1.10;;;12.50;99.90;;;;;;5033352;28;20041;-71
2022/09/11 08:44:09;;;;;;;2.35;1.10;;;12.60;99.90;;;;;;5034676;28;20026;-70
2022/09/11 08:46:38;;;;;;;1.65;0.93;;;12.60;99.90;;;;;;5034882;28;20026;-71
2022/09/11 08:49:23;;;;;;;2.35;1.00;;;12.60;99.90;;;;;;5034480;28;20032;-73
2022/09/11 08:51:50;;;;;;;4.53;1.23;;;12.60;99.90;;;;;;5034484;28;20022;-72
2022/09/11 08:54:28;;;;;;;1.73;0.82;;;12.50;99.90;;;;;;5034413;28;20367;-71
2022/09/11 08:57:15;;;;;;;1.63;0.80;;;12.50;99.90;;;;;;5034615;28;20013;-70
2022/09/11 09:00:20;;;;;;;3.47;1.05;;;12.60;99.90;;;;;;5034342;28;20037;-71
2022/09/11 09:03:05;;;;;;;2.78;1.13;;;12.60;99.90;;;;;;5032927;28;20056;-71
2022/09/11 09:05:49;;;;;;;3.30;1.33;;;12.60;99.90;;;;;;5033175;28;20385;-71
2022/09/11 09:08:40;;;;;;;2.20;0.98;;;12.70;99.90;;;;;;5032831;28;20080;-70
2022/09/11 09:11:27;;;;;;;2.33;1.00;;;12.60;99.90;;;;;;5034066;28;20474;-71
2022/09/11 09:14:13;;;;;;;3.22;1.58;;;12.70;99.90;;;;;;5032763;28;20021;-70
2022/09/11 09:16:44;;;;;;;4.85;2.03;;;12.70;99.90;;;;;;5034090;28;20027;-70
2022/09/11 09:19:20;;;;;;;2.83;1.40;;;12.70;99.90;;;;;;5033961;28;20032;-71
2022/09/11 09:22:02;;;;;;;1.75;1.20;;;12.70;99.90;;;;;;5033871;28;20394;-72
2022/09/11 09:24:35;;;;;;;2.38;1.27;;;12.70;99.90;;;;;;5034185;28;20537;-71
2022/09/11 09:27:04;;;;;;;2.10;1.00;;;12.70;99.90;;;;;;5034063;28;20088;-71
2022/09/11 09:29:35;;;;;;;3.83;1.35;;;12.70;99.90;;;;;;5032414;28;20056;-70
2022/09/11 09:32:10;;;;;;;7.15;3.15;;;12.70;99.90;;;;;;5033712;28;20029;-71
2022/09/11 09:34:39;;;;;;;4.00;1.90;;;12.70;99.90;;;;;;5034030;28;20045;-71
2022/09/11 09:37:12;;;;;;;3.25;1.70;;;12.70;99.90;;;;;;5033642;28;20040;-70
2022/09/11 09:39:38;;;;;;;5.45;3.97;;;12.70;99.90;;;;;;5033886;28;20059;-70
2022/09/11 09:42:10;;;;;;;3.28;2.53;;;12.70;99.90;;;;;;5039226;28;20025;-71
2022/09/11 09:44:54;;;;;;;3.42;1.80;;;12.70;99.90;;;;;;5052383;28;20074;-70
2022/09/11 09:47:20;;;;;;;2.83;1.85;;;12.70;99.90;;;;;;5052866;28;20021;-70
2022/09/11 09:49:46;;;;;;;2.50;1.40;;;12.70;99.90;;;;;;5037672;28;20021;-69
2022/09/11 09:52:18;;;;;;;2.60;1.38;;;12.70;99.90;;;;;;5033554;28;20474;-70
2022/09/11 09:55:00;;;;;;;2.20;1.55;;;12.70;99.90;;;;;;5033647;28;20025;-70
2022/09/11 09:57:38;;;;;;;2.10;1.10;;;12.70;99.90;;;;;;5033316;28;20021;-70
2022/09/11 10:00:10;;;;;;;2.42;1.10;;;12.70;99.90;;;;;;5033647;28;20026;-70
2022/09/11 10:03:04;;;;;;;2.88;1.45;;;12.70;99.90;;;;;;5033408;28;20386;-70
2022/09/11 10:05:33;;;;;;;4.75;3.00;;;12.90;99.90;;;;;;5031343;28;20036;-69
2022/09/11 10:08:05;;;;;;;6.30;2.05;;;13.20;99.90;;;;;;5032206;28;20032;-70
2022/09/11 10:10:37;;;;;;;1.45;0.90;;;13.40;99.90;;;;;;5033344;28;20046;-70
2022/09/11 10:13:26;;;;;;;2.72;1.20;;;13.50;99.90;;;;;;5033334;28;20115;-71
2022/09/11 10:15:54;;;;;;;1.58;1.05;;;13.40;99.90;;;;;;5033479;28;20041;-69
2022/09/11 10:18:41;;;;;;;2.67;1.10;;;13.40;99.90;;;;;;5033357;28;20053;-70
2022/09/11 10:21:20;;;;;;;1.85;1.00;;;13.30;99.90;;;;;;5033258;28;20029;-70
2022/09/11 10:23:50;;;;;;;2.40;0.88;;;13.30;99.90;;;;;;5026864;28;20025;-70
2022/09/11 10:26:36;;;;;;;1.92;0.80;;;13.20;99.90;;;;;;5033423;28;20028;-71
2022/09/11 10:29:28;;;;;;;1.92;1.00;;;13.20;99.90;;;;;;5033197;28;20164;-70
2022/09/11 10:32:01;;;;;;;1.98;1.10;;;13.20;99.90;;;;;;5033150;28;20022;-70
2022/09/11 10:34:34;;;;;;;2.67;1.00;;;13.20;99.90;;;;;;5042470;28;20029;-69
2022/09/11 10:37:14;;;;;;;8.25;5.00;;;13.20;99.90;;;;;;5033232;28;20083;-70
2022/09/11 10:39:45;;;;;;;2.78;1.30;;;13.30;99.90;;;;;;5033286;28;20033;-70
2022/09/11 10:42:22;;;;;;;2.03;1.00;;;13.30;99.90;;;;;;5033183;28;20030;-71
2022/09/11 10:44:50;;;;;;;1.58;1.02;;;13.30;99.90;;;;;;5031303;28;20105;-70
2022/09/11 10:47:17;;;;;;;2.75;0.70;;;13.40;99.90;;;;;;5031803;28;20025;-70
2022/09/11 10:49:43;;;;;;;2.42;0.80;;;13.40;99.90;;;;;;5031507;28;20109;-70
2022/09/11 10:52:09;;;;;;;3.13;1.48;;;13.50;99.90;;;;;;5033014;28;20362;-70
2022/09/11 10:54:45;;;;;;;1.58;0.68;;;13.50;99.90;;;;;;5033023;28;20025;-71
2022/09/11 10:57:36;;;;;;;2.17;0.80;;;13.50;99.90;;;;;;5035162;28;20048;-70
2022/09/11 11:00:24;;;;;;;1.23;0.73;;;13.50;99.90;;;;;;5036937;28;20030;-69
2022/09/11 11:03:16;;;;;;;2.45;0.70;;;13.50;99.90;;;;;;5036441;28;20037;-69
2022/09/11 11:05:53;;;;;;;3.70;0.88;;;13.60;99.90;;;;;;5031787;28;20520;-70
2022/09/11 11:08:46;;;;;;;1.85;0.70;;;13.60;99.90;;;;;;5036733;28;20037;-70
2022/09/11 11:11:50;;;;;;;1.27;0.60;;;13.60;99.90;;;;;;5036642;28;20034;-69
2022/09/11 11:14:48;;;;;;;1.33;0.88;;;13.60;99.90;;;;;;5036453;28;20014;-70
2022/09/11 11:17:21;;;;;;;1.40;0.80;;;13.60;99.90;;;;;;5036463;28;20097;-70
2022/09/11 11:20:25;;;;;;;1.75;0.63;;;13.60;99.90;;;;;;5036236;28;20036;-70
2022/09/11 11:23:05;;;;;;;1.90;0.77;;;13.60;99.90;;;;;;5036480;28;20022;-70
2022/09/11 11:26:01;;;;;;;2.63;1.40;;;13.60;99.90;;;;;;5036359;28;20500;-69
2022/09/11 11:28:41;;;;;;;2.05;1.13;;;13.70;99.90;;;;;;5036448;28;20446;-70
2022/09/11 11:31:19;;;;;;;1.45;0.70;;;13.70;99.90;;;;;;5031318;28;20022;-69
2022/09/11 11:34:10;;;;;;;1.75;0.88;;;13.70;99.90;;;;;;5035310;28;20474;-70
2022/09/11 11:36:46;;;;;;;3.92;1.70;;;13.70;99.90;;;;;;5035085;28;20052;-70
2022/09/11 11:39:32;;;;;;;1.88;1.15;;;13.70;99.90;;;;;;5035283;28;20033;-70
2022/09/11 11:41:58;;;;;;;2.50;1.30;;;13.70;99.90;;;;;;5034975;28;20079;-71
2022/09/11 11:44:43;;;;;;;2.28;1.10;;;13.80;99.90;;;;;;5035085;28;20432;-70
2022/09/11 11:47:10;;;;;;;2.45;1.42;;;13.80;99.90;;;;;;5035719;28;20034;-71
2022/09/11 11:50:09;;;;;;;1.48;0.90;;;13.80;99.90;;;;;;5035565;28;20083;-70
2022/09/11 11:52:38;;;;;;;2.42;1.05;;;13.80;99.90;;;;;;5035829;28;20025;-70
2022/09/11 11:55:20;;;;;;;0.98;0.50;;;13.80;99.90;;;;;;5035505;28;20033;-71
2022/09/11 11:58:23;;;;;;;2.03;0.80;;;13.90;99.90;;;;;;5034248;28;20129;-71
2022/09/11 12:00:57;;;;;;;3.35;1.10;;;14.00;99.90;;;;;;5035514;28;20026;-70
2022/09/11 12:03:45;;;;;;;3.50;1.40;;;14.10;99.90;;;;;;5035481;28;20036;-70
2022/09/11 12:06:11;;;;;;;1.48;0.90;;;14.20;99.90;;;;;;5035679;28;20029;-70
2022/09/11 12:08:44;;;;;;;1.52;0.60;;;14.20;99.90;;;;;;5033594;28;20029;-70
2022/09/11 12:11:17;;;;;;;1.73;0.68;;;14.30;99.90;;;;;;5035221;28;20101;-70
2022/09/11 12:13:46;;;;;;;2.08;0.80;;;14.30;99.90;;;;;;5035587;28;20128;-70
2022/09/11 12:16:19;;;;;;;1.92;1.02;;;14.30;99.90;;;;;;5035244;28;20474;-70
2022/09/11 12:19:06;;;;;;;2.58;1.60;;;14.30;99.90;;;;;;5035708;28;20026;-71
2022/09/11 12:21:35;;;;;;;3.08;1.38;;;14.40;99.90;;;;;;5035137;28;20108;-71
2022/09/11 12:24:03;;;;;;;4.78;1.52;;;14.40;99.90;;;;;;5035109;28;20018;-71
2022/09/11 12:26:30;;;;;;;3.15;0.75;;;14.40;99.90;;;;;;5035426;28;20083;-70
2022/09/11 12:29:28;;;;;;;1.10;0.55;;;14.50;99.90;;;;;;5034923;28;20017;-71
2022/09/11 12:32:22;;;;;;;2.47;0.77;;;14.50;99.90;;;;;;5032691;28;20112;-68
2022/09/11 12:34:48;;;;;;;3.22;1.50;;;14.50;99.90;;;;;;5035134;28;20024;-70
2022/09/11 12:37:31;;;;;;;1.92;1.17;;;14.50;99.90;;;;;;5034825;28;20017;-70
2022/09/11 12:40:26;;;;;;;2.80;0.90;;;14.50;99.90;;;;;;5034942;28;20033;-70
2022/09/11 12:43:16;;;;;;;5.50;2.75;;;14.50;99.90;;;;;;5034688;28;20029;-72
2022/09/11 12:45:42;;;;;;;3.33;0.90;;;14.50;99.90;;;;;;5035227;28;20033;-72
2022/09/11 12:48:12;;;;;;;2.03;1.10;;;14.40;99.90;;;;;;5034923;28;20045;-72
2022/09/11 12:50:47;;;;;;;3.35;1.70;;;14.30;99.90;;;;;;5034836;28;20450;-71
2022/09/11 12:53:19;;;;;;;3.40;2.58;;;14.30;99.90;;;;;;5034670;28;20013;-72
2022/09/11 12:55:59;;;;;;;7.22;4.70;;;14.20;99.90;;;;;;5034619;28;20030;-72
2022/09/11 12:58:39;;;;;;;4.85;3.85;;;14.10;99.90;;;;;;5034600;28;20041;-71
2022/09/11 13:01:13;;;;;;;2.07;1.40;;;14.10;99.90;;;;;;5033115;28;20033;-72
2022/09/11 13:04:13;;;;;;;3.00;1.30;;;14.10;99.90;;;;;;5033161;28;20504;-73
2022/09/11 13:06:43;;;;;;;2.00;1.30;;;14.00;99.90;;;;;;5034651;28;20474;-71
2022/09/11 13:09:38;;;;;;;2.65;1.50;;;14.00;99.90;;;;;;5034599;28;20113;-72
2022/09/11 13:12:22;;;;;;;2.70;1.50;;;14.00;99.90;;;;;;5034222;28;20486;-72
2022/09/11 13:14:53;;;;;;;2.67;1.48;;;14.00;99.90;;;;;;5034771;28;20029;-72